Alberton, Montana
Current Conditions -  °F | °C
As of 8:45 AM on Sunday 21 Dec 2014 (Local Time) from KMSO Reporting Station
Haze Haze  
Wind Chill: 23°   Ceiling: 7500
Heat Index: 31°   Visibility: 1.7mi
Dew Point: 31°   Wind: 8mph
Humidity: 100%   Direction: 120°ESE
Pressure: 29.59"   Gusts: NA
Location:  47°N, 114.47°W
Report Text: KMSO 211545Z 12007KT 1 3/4SM UP BR FEW002 SCT032 BKN075 M01/M01 A2959 RMK AO2 UPB38 P0000 T10061006 $
Loading
Personal Weather Stations






























Interactive Weather Map New forecast layout! Learn more

10-Day Weather Forecast

Advertisements
Track Severe Weather on mobile